Time;durP1;ratioP1;P1;durP2;ratioP2;P2;SDS_P1;SDS_P2;PMS_P1;PMS_P2;Temp;Humidity;BMP_temperature;BMP_pressure;BME280_temperature;BME280_humidity;BME280_pressure;Samples;Min_cycle;Max_cycle;Signal;HPM_P1;HPM_P2
2022/08/27 00:00:12;;;;;;;10.00;5.05;;;;;;;;;;4982516;28;20056;-55
2022/08/27 00:02:38;;;;;;;11.95;4.78;;;;;;;;;;4977861;28;20065;-51
2022/08/27 00:05:04;;;;;;;7.75;4.80;;;;;;;;;;4976149;28;20069;-57
2022/08/27 00:07:29;;;;;;;10.13;5.35;;;;;;;;;;4976462;28;20042;-53
2022/08/27 00:09:55;;;;;;;8.43;4.72;;;;;;;;;;4983043;28;20084;-56
2022/08/27 00:12:21;;;;;;;14.63;5.40;;;;;;;;;;4981883;28;20093;-54
2022/08/27 00:14:46;;;;;;;10.18;4.88;;;;;;;;;;4982607;28;20053;-55
2022/08/27 00:17:12;;;;;;;7.63;4.40;;;;;;;;;;4982202;28;20050;-56
2022/08/27 00:19:38;;;;;;;8.70;5.15;;;;;;;;;;4983550;28;20461;-53
2022/08/27 00:22:06;;;;;;;12.70;5.10;;;;;;;;;;4980728;28;20049;-56
2022/08/27 00:24:31;;;;;;;8.32;4.70;;;;;;;;;;4979894;28;20504;-53
2022/08/27 00:26:57;;;;;;;6.88;4.45;;;;;;;;;;4982929;28;20049;-53
2022/08/27 00:29:23;;;;;;;11.77;5.65;;;;;;;;;;4982902;28;20500;-53
2022/08/27 00:31:49;;;;;;;8.55;5.00;;;;;;;;;;4978064;28;20514;-56
2022/08/27 00:34:14;;;;;;;7.35;5.47;;;;;;;;;;4983476;28;20065;-53
2022/08/27 00:36:40;;;;;;;9.90;5.32;;;;;;;;;;4982908;28;20072;-54
2022/08/27 00:39:06;;;;;;;13.07;5.35;;;;;;;;;;4980904;28;20042;-53
2022/08/27 00:41:32;;;;;;;9.80;5.25;;;;;;;;;;4986469;28;20105;-53
2022/08/27 00:43:59;;;;;;;12.95;5.47;;;;;;;;;;4983841;28;20061;-55
2022/08/27 00:46:40;;;;;;;11.80;6.20;;;;;;;;;;4982674;28;20061;-57
2022/08/27 00:49:29;;;;;;;9.82;5.07;;;;;;;;;;4979368;28;20521;-55
2022/08/27 00:51:59;;;;;;;12.40;5.40;;;;;;;;;;4971446;28;20046;-58
2022/08/27 00:54:25;;;;;;;10.43;5.43;;;;;;;;;;4976663;28;20046;-57
2022/08/27 00:56:51;;;;;;;9.98;4.85;;;;;;;;;;4979444;28;20331;-55
2022/08/27 00:59:18;;;;;;;10.00;5.85;;;;;;;;;;4982313;28;20489;-54
2022/08/27 01:04:31;;;;;;;13.52;5.40;;;;;;;;;;4983050;28;20049;-54
2022/08/27 01:06:58;;;;;;;9.00;5.03;;;;;;;;;;4979825;28;20035;-54
2022/08/27 01:09:24;;;;;;;9.93;5.53;;;;;;;;;;4984642;28;20065;-56
2022/08/27 01:11:51;;;;;;;11.82;5.43;;;;;;;;;;4977345;28;20051;-53
2022/08/27 01:14:17;;;;;;;10.30;5.30;;;;;;;;;;4982802;28;20043;-59
2022/08/27 01:16:48;;;;;;;10.90;5.60;;;;;;;;;;4980593;28;20034;-57
2022/08/27 01:19:37;;;;;;;8.50;5.63;;;;;;;;;;4996239;28;20809;-54
2022/08/27 01:22:26;;;;;;;12.45;5.47;;;;;;;;;;4973249;28;20058;-54
2022/08/27 01:24:55;;;;;;;8.05;5.10;;;;;;;;;;4969514;28;20069;-53
2022/08/27 01:27:26;;;;;;;8.52;5.07;;;;;;;;;;4987911;28;20046;-51
2022/08/27 01:29:51;;;;;;;10.75;5.30;;;;;;;;;;4989104;28;20054;-54
2022/08/27 01:32:23;;;;;;;11.40;5.15;;;;;;;;;;4982632;28;20068;-56
2022/08/27 01:34:49;;;;;;;10.43;5.07;;;;;;;;;;4983015;28;20494;-57
2022/08/27 01:37:15;;;;;;;9.95;5.40;;;;;;;;;;4986000;28;20145;-54
2022/08/27 01:39:42;;;;;;;8.50;5.43;;;;;;;;;;4984010;28;20133;-58
2022/08/27 01:42:14;;;;;;;10.88;5.72;;;;;;;;;;4984347;28;20112;-64
2022/08/27 01:44:49;;;;;;;11.15;5.22;;;;;;;;;;4984750;28;20106;-54
2022/08/27 01:47:17;;;;;;;11.32;5.05;;;;;;;;;;4985998;28;20054;-57
2022/08/27 01:49:42;;;;;;;10.13;5.45;;;;;;;;;;4985566;28;20056;-59
2022/08/27 01:52:08;;;;;;;7.45;5.00;;;;;;;;;;4985344;28;20464;-54
2022/08/27 01:54:33;;;;;;;8.77;5.53;;;;;;;;;;4981104;28;20101;-55
2022/08/27 01:56:59;;;;;;;8.65;5.47;;;;;;;;;;4982395;28;20424;-61
2022/08/27 01:59:25;;;;;;;9.30;5.80;;;;;;;;;;4981005;28;20101;-54
2022/08/27 02:01:53;;;;;;;10.68;5.18;;;;;;;;;;4978547;28;20088;-56
2022/08/27 02:04:18;;;;;;;13.98;5.82;;;;;;;;;;4989858;28;20053;-55
2022/08/27 02:06:44;;;;;;;9.95;5.43;;;;;;;;;;4982432;28;20492;-56
2022/08/27 02:09:09;;;;;;;13.30;5.75;;;;;;;;;;4989039;28;20073;-53
2022/08/27 02:11:34;;;;;;;10.02;6.10;;;;;;;;;;4986776;28;20062;-55
2022/08/27 02:14:00;;;;;;;7.70;5.85;;;;;;;;;;4986885;28;20494;-55
2022/08/27 02:16:25;;;;;;;6.82;5.65;;;;;;;;;;4985883;28;20026;-57
2022/08/27 02:18:53;;;;;;;11.20;5.95;;;;;;;;;;4988038;28;20064;-57
2022/08/27 02:21:19;;;;;;;9.30;6.40;;;;;;;;;;4989024;28;20058;-57
2022/08/27 02:23:44;;;;;;;11.75;5.82;;;;;;;;;;4987013;28;20506;-54
2022/08/27 02:26:10;;;;;;;18.52;5.80;;;;;;;;;;4986289;28;20126;-55
2022/08/27 02:28:35;;;;;;;12.90;5.97;;;;;;;;;;4986436;28;20607;-56
2022/08/27 02:31:00;;;;;;;10.13;7.13;;;;;;;;;;4989190;28;20558;-56
2022/08/27 02:33:26;;;;;;;12.80;6.93;;;;;;;;;;4986206;28;20053;-55
2022/08/27 02:35:51;;;;;;;14.77;7.00;;;;;;;;;;4988303;28;20046;-54
2022/08/27 02:38:19;;;;;;;15.00;6.50;;;;;;;;;;4986087;28;20042;-54
2022/08/27 02:40:44;;;;;;;10.20;5.95;;;;;;;;;;4981232;28;20092;-57
2022/08/27 02:43:10;;;;;;;12.93;6.93;;;;;;;;;;4987474;28;20035;-56
2022/08/27 02:45:36;;;;;;;11.68;6.95;;;;;;;;;;4988730;28;20042;-54
2022/08/27 02:48:03;;;;;;;11.70;6.65;;;;;;;;;;4987125;28;20489;-53
2022/08/27 02:50:29;;;;;;;11.48;6.72;;;;;;;;;;4986872;28;20066;-55
2022/08/27 02:52:54;;;;;;;9.65;6.20;;;;;;;;;;4984931;28;20126;-53
2022/08/27 02:55:21;;;;;;;10.75;6.80;;;;;;;;;;4986307;28;20031;-54
2022/08/27 02:57:47;;;;;;;13.98;7.53;;;;;;;;;;4987269;28;20575;-54
2022/08/27 03:00:15;;;;;;;12.18;6.55;;;;;;;;;;4984593;28;20038;-54
2022/08/27 03:02:41;;;;;;;11.73;7.30;;;;;;;;;;4979367;28;20050;-54
2022/08/27 03:05:07;;;;;;;14.18;7.10;;;;;;;;;;4985401;28;20057;-53
2022/08/27 03:07:33;;;;;;;12.50;6.90;;;;;;;;;;4987819;28;20443;-62
2022/08/27 03:09:58;;;;;;;10.85;6.85;;;;;;;;;;4986731;28;20042;-53
2022/08/27 03:12:23;;;;;;;13.43;7.78;;;;;;;;;;4985272;28;20073;-53
2022/08/27 03:14:49;;;;;;;14.40;7.55;;;;;;;;;;4977334;28;20046;-55
2022/08/27 03:20:00;;;;;;;12.85;7.60;;;;;;;;;;4984529;28;20645;-56
2022/08/27 03:22:26;;;;;;;12.27;8.07;;;;;;;;;;4984058;28;20042;-56
2022/08/27 03:24:51;;;;;;;12.15;7.65;;;;;;;;;;4986362;28;20080;-53
2022/08/27 03:27:16;;;;;;;11.43;7.63;;;;;;;;;;4982416;28;20145;-56
2022/08/27 03:29:42;;;;;;;13.13;7.78;;;;;;;;;;4985874;28;20529;-51
2022/08/27 03:32:07;;;;;;;12.55;7.75;;;;;;;;;;4986831;28;20506;-57
2022/08/27 03:34:33;;;;;;;13.95;7.07;;;;;;;;;;4982097;28;20027;-56
2022/08/27 03:36:59;;;;;;;12.32;7.78;;;;;;;;;;4983687;28;20051;-56
2022/08/27 03:39:24;;;;;;;17.50;8.25;;;;;;;;;;4983441;28;20054;-53
2022/08/27 03:41:50;;;;;;;13.65;8.35;;;;;;;;;;4983747;28;20055;-52
2022/08/27 03:44:16;;;;;;;15.32;7.38;;;;;;;;;;4981846;28;20050;-56
2022/08/27 03:46:41;;;;;;;11.73;7.55;;;;;;;;;;4984856;28;20038;-54
2022/08/27 03:49:07;;;;;;;10.13;7.18;;;;;;;;;;4982243;28;20049;-55
2022/08/27 03:51:32;;;;;;;15.40;7.63;;;;;;;;;;4980563;28;20054;-57
2022/08/27 03:53:58;;;;;;;13.90;7.80;;;;;;;;;;4984308;28;20050;-57
2022/08/27 03:56:23;;;;;;;13.70;7.45;;;;;;;;;;4977988;28;20054;-57
2022/08/27 03:58:49;;;;;;;11.50;8.70;;;;;;;;;;4986528;28;20042;-55
2022/08/27 04:01:15;;;;;;;12.35;7.75;;;;;;;;;;4983454;28;20050;-54
2022/08/27 04:03:41;;;;;;;14.55;7.38;;;;;;;;;;4982300;28;20046;-53
2022/08/27 04:06:06;;;;;;;14.02;7.97;;;;;;;;;;4976254;28;20065;-55
2022/08/27 04:08:32;;;;;;;12.75;7.80;;;;;;;;;;4981085;28;20046;-53
2022/08/27 04:10:57;;;;;;;14.20;7.53;;;;;;;;;;4986170;28;20405;-58
2022/08/27 04:13:23;;;;;;;11.05;7.57;;;;;;;;;;4984275;28;20037;-62
2022/08/27 04:15:51;;;;;;;11.82;7.65;;;;;;;;;;4985225;28;20129;-58
2022/08/27 04:18:17;;;;;;;13.75;8.00;;;;;;;;;;4980968;28;20088;-57
2022/08/27 04:20:44;;;;;;;15.23;8.02;;;;;;;;;;4980539;28;20046;-55
2022/08/27 04:23:09;;;;;;;12.02;7.30;;;;;;;;;;4982479;28;20062;-54
2022/08/27 04:25:39;;;;;;;12.90;7.03;;;;;;;;;;4983435;28;20526;-56
2022/08/27 04:28:04;;;;;;;14.98;7.57;;;;;;;;;;4984132;28;20065;-56
2022/08/27 04:30:30;;;;;;;14.85;7.82;;;;;;;;;;4984151;28;20035;-54
2022/08/27 04:32:57;;;;;;;11.68;7.28;;;;;;;;;;4988205;28;20061;-55
2022/08/27 04:35:22;;;;;;;10.43;7.43;;;;;;;;;;4982962;28;20050;-56
2022/08/27 04:37:48;;;;;;;13.25;9.02;;;;;;;;;;4982190;28;20101;-55
2022/08/27 04:40:13;;;;;;;14.30;7.93;;;;;;;;;;4982419;28;20023;-57
2022/08/27 04:42:39;;;;;;;14.45;7.93;;;;;;;;;;4985341;28;20042;-55
2022/08/27 04:45:04;;;;;;;11.88;7.85;;;;;;;;;;4980744;28;20053;-52
2022/08/27 04:47:30;;;;;;;11.93;7.93;;;;;;;;;;4982818;28;20046;-53
2022/08/27 04:49:56;;;;;;;14.60;7.80;;;;;;;;;;4983351;28;20062;-53
2022/08/27 04:52:21;;;;;;;13.13;7.82;;;;;;;;;;4985187;28;20042;-54
2022/08/27 04:54:47;;;;;;;15.23;7.93;;;;;;;;;;4985497;28;20476;-54
2022/08/27 04:57:12;;;;;;;13.15;7.68;;;;;;;;;;4980668;28;20078;-56
2022/08/27 04:59:37;;;;;;;12.85;7.43;;;;;;;;;;4989008;28;20129;-54
2022/08/27 05:02:05;;;;;;;10.18;7.00;;;;;;;;;;4983473;28;20069;-54
2022/08/27 05:04:33;;;;;;;12.73;8.05;;;;;;;;;;4985204;28;20061;-57
2022/08/27 05:07:00;;;;;;;12.48;8.43;;;;;;;;;;4986857;28;20046;-54
2022/08/27 05:09:25;;;;;;;15.10;8.48;;;;;;;;;;4981489;28;20047;-54
2022/08/27 05:11:53;;;;;;;13.43;7.28;;;;;;;;;;4985649;28;20695;-53
2022/08/27 05:14:19;;;;;;;16.05;7.20;;;;;;;;;;4987452;28;20452;-52
2022/08/27 05:16:46;;;;;;;16.92;7.82;;;;;;;;;;4981434;28;20093;-51
2022/08/27 05:19:13;;;;;;;11.35;7.72;;;;;;;;;;4982134;28;20034;-48
2022/08/27 05:21:44;;;;;;;12.15;7.88;;;;;;;;;;4983109;28;20046;-64
2022/08/27 05:24:10;;;;;;;11.95;7.25;;;;;;;;;;4980353;28;20061;-63
2022/08/27 05:26:36;;;;;;;9.68;7.20;;;;;;;;;;4983181;28;20289;-62
2022/08/27 05:29:03;;;;;;;13.85;7.30;;;;;;;;;;4982632;28;20066;-64
2022/08/27 05:31:28;;;;;;;11.88;7.90;;;;;;;;;;4985415;28;20443;-66
2022/08/27 05:33:55;;;;;;;13.60;6.97;;;;;;;;;;4987276;28;20048;-64
2022/08/27 05:36:26;;;;;;;11.52;7.20;;;;;;;;;;4988254;28;20053;-64
2022/08/27 05:38:53;;;;;;;9.73;6.20;;;;;;;;;;4976320;28;20126;-64
2022/08/27 05:41:28;;;;;;;15.82;7.20;;;;;;;;;;4982815;28;20066;-64
2022/08/27 05:43:56;;;;;;;13.50;7.20;;;;;;;;;;4988345;28;20072;-63
2022/08/27 05:46:23;;;;;;;10.68;6.30;;;;;;;;;;4985351;28;20413;-63
2022/08/27 05:48:50;;;;;;;12.98;6.50;;;;;;;;;;4983281;28;20405;-63
2022/08/27 05:51:18;;;;;;;12.73;7.35;;;;;;;;;;4985950;28;20439;-64
2022/08/27 05:53:43;;;;;;;13.68;7.50;;;;;;;;;;4985717;28;20039;-64
2022/08/27 05:56:20;;;;;;;13.13;6.38;;;;;;;;;;4982514;28;20097;-64
2022/08/27 06:01:35;;;;;;;13.38;6.65;;;;;;;;;;4981723;28;20615;-65
2022/08/27 06:04:02;;;;;;;10.10;6.60;;;;;;;;;;4986131;28;20061;-64
2022/08/27 06:06:27;;;;;;;13.90;7.20;;;;;;;;;;4987130;28;20066;-64
2022/08/27 06:08:53;;;;;;;15.43;6.65;;;;;;;;;;4963662;28;20050;-62
2022/08/27 06:11:19;;;;;;;13.73;7.55;;;;;;;;;;4990005;28;20557;-64
2022/08/27 06:13:45;;;;;;;12.35;6.28;;;;;;;;;;4981422;28;20045;-64
2022/08/27 06:16:14;;;;;;;13.35;5.88;;;;;;;;;;4988971;28;20030;-62
2022/08/27 06:18:41;;;;;;;10.82;6.13;;;;;;;;;;4989665;28;20192;-65
2022/08/27 06:21:08;;;;;;;13.48;6.35;;;;;;;;;;4982684;28;20100;-64
2022/08/27 06:23:34;;;;;;;11.30;5.88;;;;;;;;;;4989515;28;20053;-63
2022/08/27 06:26:00;;;;;;;9.27;6.25;;;;;;;;;;4990070;28;20062;-61
2022/08/27 06:28:30;;;;;;;17.27;6.50;;;;;;;;;;4987516;28;20030;-61
2022/08/27 06:31:08;;;;;;;10.68;6.32;;;;;;;;;;4988877;28;20045;-61
2022/08/27 06:33:34;;;;;;;10.32;5.78;;;;;;;;;;4985791;28;20070;-62
2022/08/27 06:36:00;;;;;;;10.50;5.63;;;;;;;;;;4987026;28;20162;-62
2022/08/27 06:38:27;;;;;;;10.63;6.05;;;;;;;;;;4980985;28;20055;-62
2022/08/27 06:40:52;;;;;;;10.07;5.88;;;;;;;;;;4984176;28;20137;-60
2022/08/27 06:43:18;;;;;;;12.20;5.72;;;;;;;;;;4990364;28;20187;-60
2022/08/27 06:45:43;;;;;;;14.52;5.72;;;;;;;;;;4986078;28;20042;-61
2022/08/27 06:48:09;;;;;;;12.13;5.60;;;;;;;;;;4988842;28;20086;-60
2022/08/27 06:50:39;;;;;;;13.32;5.15;;;;;;;;;;4985740;28;20050;-61
2022/08/27 06:53:05;;;;;;;9.57;5.40;;;;;;;;;;4988731;28;20054;-61
2022/08/27 06:55:30;;;;;;;11.85;5.10;;;;;;;;;;4983209;28;20038;-61
2022/08/27 06:57:55;;;;;;;11.60;5.35;;;;;;;;;;4978329;28;20420;-61
2022/08/27 07:00:21;;;;;;;11.43;5.45;;;;;;;;;;4983577;28;20082;-62
2022/08/27 07:02:46;;;;;;;7.68;4.80;;;;;;;;;;4990374;28;20657;-61
2022/08/27 07:05:11;;;;;;;12.57;5.72;;;;;;;;;;4987237;28;20156;-61
2022/08/27 07:07:37;;;;;;;9.52;5.03;;;;;;;;;;4987655;28;20477;-61
2022/08/27 07:10:03;;;;;;;10.65;5.60;;;;;;;;;;4988806;28;20038;-62
2022/08/27 07:12:28;;;;;;;16.02;5.45;;;;;;;;;;4985481;28;20139;-62
2022/08/27 07:14:54;;;;;;;11.40;5.82;;;;;;;;;;4982798;28;20701;-61
2022/08/27 07:17:19;;;;;;;11.68;5.82;;;;;;;;;;4984597;28;20054;-61
2022/08/27 07:19:45;;;;;;;11.23;5.38;;;;;;;;;;4982258;28;20114;-61
2022/08/27 07:22:11;;;;;;;10.55;5.43;;;;;;;;;;4983345;28;20057;-62
2022/08/27 07:24:37;;;;;;;12.23;4.97;;;;;;;;;;4984924;28;20045;-62
2022/08/27 07:27:02;;;;;;;8.63;4.40;;;;;;;;;;4986018;28;20034;-61
2022/08/27 07:29:28;;;;;;;8.68;4.63;;;;;;;;;;4988674;28;20489;-63
2022/08/27 07:31:53;;;;;;;9.27;4.85;;;;;;;;;;4983921;28;20033;-61
2022/08/27 07:34:18;;;;;;;11.13;4.80;;;;;;;;;;4985567;28;20117;-61
2022/08/27 07:36:44;;;;;;;9.10;4.53;;;;;;;;;;4984410;28;20057;-61
2022/08/27 07:39:09;;;;;;;10.45;4.70;;;;;;;;;;4979473;28;20058;-61
2022/08/27 07:44:24;;;;;;;6.72;4.57;;;;;;;;;;4979126;28;20049;-62
2022/08/27 07:44:24;;;;;;;9.98;4.55;;;;;;;;;;4983677;28;20053;-61
2022/08/27 07:46:49;;;;;;;10.45;5.00;;;;;;;;;;4978629;28;20031;-61
2022/08/27 07:49:16;;;;;;;10.98;4.97;;;;;;;;;;4985383;28;20502;-61
2022/08/27 07:51:42;;;;;;;8.10;4.50;;;;;;;;;;4981338;28;20051;-60
2022/08/27 07:54:07;;;;;;;6.72;4.55;;;;;;;;;;4985967;28;20609;-63
2022/08/27 07:56:33;;;;;;;11.20;5.38;;;;;;;;;;4988011;28;20057;-62
2022/08/27 07:58:58;;;;;;;7.18;4.70;;;;;;;;;;4989310;28;20057;-61
2022/08/27 08:01:24;;;;;;;10.38;4.82;;;;;;;;;;4988711;28;20034;-62
2022/08/27 08:03:49;;;;;;;10.95;4.35;;;;;;;;;;4979452;28;20046;-60
2022/08/27 08:06:15;;;;;;;10.40;4.45;;;;;;;;;;4980735;28;20057;-61
2022/08/27 08:08:41;;;;;;;8.55;4.15;;;;;;;;;;4980002;28;20081;-62
2022/08/27 08:11:08;;;;;;;11.27;4.78;;;;;;;;;;4988260;28;20496;-61
2022/08/27 08:13:33;;;;;;;10.50;4.90;;;;;;;;;;4980182;28;20129;-61
2022/08/27 08:15:59;;;;;;;9.18;4.60;;;;;;;;;;4976874;28;20141;-61
2022/08/27 08:18:25;;;;;;;9.40;4.32;;;;;;;;;;4978455;28;20050;-59
2022/08/27 08:20:51;;;;;;;6.97;3.70;;;;;;;;;;4975138;28;20656;-61
2022/08/27 08:23:17;;;;;;;11.27;4.75;;;;;;;;;;4978310;28;20137;-61
2022/08/27 08:25:42;;;;;;;6.68;4.05;;;;;;;;;;4980817;28;20174;-62
2022/08/27 08:28:10;;;;;;;5.53;3.80;;;;;;;;;;4982022;28;20026;-61
2022/08/27 08:30:36;;;;;;;7.05;4.10;;;;;;;;;;4976930;28;20515;-62
2022/08/27 08:33:02;;;;;;;6.72;4.00;;;;;;;;;;4978095;28;20053;-63
2022/08/27 08:35:27;;;;;;;7.05;3.70;;;;;;;;;;4983381;28;20050;-61
2022/08/27 08:37:53;;;;;;;7.25;3.92;;;;;;;;;;4979159;28;20034;-61
2022/08/27 08:40:32;;;;;;;6.95;3.90;;;;;;;;;;4986836;28;20053;-60
2022/08/27 08:42:58;;;;;;;5.85;3.70;;;;;;;;;;4982419;28;20042;-61
2022/08/27 08:45:28;;;;;;;8.52;3.60;;;;;;;;;;4984451;28;20598;-61
2022/08/27 08:48:04;;;;;;;7.43;3.63;;;;;;;;;;4987337;28;20053;-61
2022/08/27 08:50:50;;;;;;;9.20;3.83;;;;;;;;;;4988045;28;20096;-61
2022/08/27 08:53:41;;;;;;;6.47;3.63;;;;;;;;;;4985344;28;20050;-61
2022/08/27 08:56:21;;;;;;;6.32;3.50;;;;;;;;;;4989035;28;20050;-62
2022/08/27 08:58:54;;;;;;;10.18;3.60;;;;;;;;;;4988984;28;20057;-61
2022/08/27 09:01:20;;;;;;;7.45;3.78;;;;;;;;;;4984074;28;20068;-60
2022/08/27 09:03:56;;;;;;;6.05;3.78;;;;;;;;;;4981148;28;20074;-60
2022/08/27 09:06:36;;;;;;;8.82;3.28;;;;;;;;;;4988606;28;20186;-60
2022/08/27 09:09:14;;;;;;;8.07;3.55;;;;;;;;;;4982769;28;20046;-59
2022/08/27 09:12:04;;;;;;;5.20;3.70;;;;;;;;;;4983112;28;20070;-61
2022/08/27 09:14:37;;;;;;;9.00;3.83;;;;;;;;;;4985103;28;20055;-60
2022/08/27 09:17:04;;;;;;;6.60;3.55;;;;;;;;;;4977253;28;20058;-60
2022/08/27 09:19:29;;;;;;;8.90;4.32;;;;;;;;;;4976763;28;20034;-60
2022/08/27 09:22:04;;;;;;;7.82;4.22;;;;;;;;;;4974483;28;20499;-61
2022/08/27 09:24:35;;;;;;;8.80;4.30;;;;;;;;;;4975485;28;20059;-60
2022/08/27 09:27:01;;;;;;;6.57;3.88;;;;;;;;;;4976984;28;20054;-60
2022/08/27 09:29:28;;;;;;;3.88;3.50;;;;;;;;;;4976161;28;20511;-60
2022/08/27 09:32:02;;;;;;;8.60;3.88;;;;;;;;;;4989729;28;20038;-61
2022/08/27 09:34:34;;;;;;;6.88;3.47;;;;;;;;;;4975836;28;20045;-61
2022/08/27 09:37:23;;;;;;;7.35;3.97;;;;;;;;;;4982869;28;20058;-62
2022/08/27 09:40:03;;;;;;;7.90;4.00;;;;;;;;;;4983388;28;20049;-60
2022/08/27 09:42:37;;;;;;;6.90;4.20;;;;;;;;;;4983333;28;20066;-60
2022/08/27 09:45:10;;;;;;;6.22;3.55;;;;;;;;;;4985238;28;20385;-60
2022/08/27 09:47:49;;;;;;;8.13;3.65;;;;;;;;;;4987171;28;20050;-60
2022/08/27 09:50:19;;;;;;;5.38;3.50;;;;;;;;;;4984519;28;20050;-65
2022/08/27 09:52:52;;;;;;;7.28;3.35;;;;;;;;;;4988833;28;20034;-60
2022/08/27 09:55:29;;;;;;;5.30;3.50;;;;;;;;;;4990498;28;20031;-61
2022/08/27 09:57:55;;;;;;;6.85;4.05;;;;;;;;;;4986648;28;20073;-61
2022/08/27 10:00:35;;;;;;;7.72;3.80;;;;;;;;;;4990062;28;20046;-61
2022/08/27 10:03:02;;;;;;;7.00;3.70;;;;;;;;;;4987117;28;20054;-56
2022/08/27 10:05:37;;;;;;;5.72;3.85;;;;;;;;;;4984829;28;20057;-61
2022/08/27 10:08:40;;;;;;;6.03;3.92;;;;;;;;;;4989217;28;20050;-60
2022/08/27 10:11:13;;;;;;;8.68;3.60;;;;;;;;;;4980863;28;20054;-60
2022/08/27 10:13:55;;;;;;;14.07;4.00;;;;;;;;;;4983811;28;20050;-60
2022/08/27 10:16:57;;;;;;;10.55;3.72;;;;;;;;;;4980624;28;20046;-60
2022/08/27 10:19:41;;;;;;;6.20;3.73;;;;;;;;;;4980571;28;20054;-60
2022/08/27 10:22:50;;;;;;;8.88;3.70;;;;;;;;;;4985812;28;20304;-60
2022/08/27 10:25:44;;;;;;;8.50;3.78;;;;;;;;;;4965609;28;20628;-60
2022/08/27 10:28:28;;;;;;;6.22;3.83;;;;;;;;;;4979706;28;20057;-60
2022/08/27 10:31:07;;;;;;;5.05;3.70;;;;;;;;;;4981744;28;20115;-60
2022/08/27 10:33:47;;;;;;;5.18;3.33;;;;;;;;;;4985081;28;20054;-60
2022/08/27 10:36:35;;;;;;;3.88;3.35;;;;;;;;;;4965321;28;20055;-60
2022/08/27 10:39:18;;;;;;;6.03;3.22;;;;;;;;;;4968299;28;20109;-60
2022/08/27 10:42:08;;;;;;;8.57;3.13;;;;;;;;;;4968686;28;20408;-61
2022/08/27 10:45:00;;;;;;;7.75;3.47;;;;;;;;;;4969898;28;20045;-60
2022/08/27 10:47:46;;;;;;;3.40;3.10;;;;;;;;;;4963699;28;20049;-60
2022/08/27 10:50:23;;;;;;;3.80;3.10;;;;;;;;;;4963435;28;20125;-60
2022/08/27 10:52:59;;;;;;;6.22;3.20;;;;;;;;;;4960500;28;20078;-60
2022/08/27 10:55:32;;;;;;;4.88;3.15;;;;;;;;;;4965496;28;20644;-60
2022/08/27 10:58:38;;;;;;;5.93;3.00;;;;;;;;;;4964149;28;20075;-61
2022/08/27 11:01:19;;;;;;;6.53;3.15;;;;;;;;;;4949683;28;20049;-62
2022/08/27 11:04:12;;;;;;;6.05;3.08;;;;;;;;;;4949303;28;20245;-63
2022/08/27 11:06:41;;;;;;;7.28;3.22;;;;;;;;;;4954098;28;20070;-63
2022/08/27 11:09:21;;;;;;;4.05;3.05;;;;;;;;;;4960682;28;20078;-62
2022/08/27 11:11:57;;;;;;;4.28;2.95;;;;;;;;;;4972152;28;20480;-61
2022/08/27 11:14:51;;;;;;;5.75;3.60;;;;;;;;;;4959908;28;20389;-61
2022/08/27 11:17:27;;;;;;;5.20;3.40;;;;;;;;;;4964601;28;20589;-62
2022/08/27 11:20:15;;;;;;;3.70;3.22;;;;;;;;;;4967907;28;20041;-62
2022/08/27 11:22:55;;;;;;;5.97;3.30;;;;;;;;;;4963836;28;20050;-60
2022/08/27 11:25:58;;;;;;;4.55;3.40;;;;;;;;;;4944316;28;20385;-61
2022/08/27 11:28:40;;;;;;;3.85;3.22;;;;;;;;;;4850660;29;20063;-62
2022/08/27 11:31:19;;;;;;;4.07;3.17;;;;;;;;;;4951827;28;20042;-61
2022/08/27 11:33:45;;;;;;;4.60;3.10;;;;;;;;;;4949292;28;20057;-62
2022/08/27 11:36:30;;;;;;;3.63;3.33;;;;;;;;;;4964044;28;20055;-61
2022/08/27 11:39:15;;;;;;;4.75;3.13;;;;;;;;;;4963858;28;20053;-62
2022/08/27 11:42:03;;;;;;;6.78;3.50;;;;;;;;;;4963450;28;20070;-61
2022/08/27 11:44:30;;;;;;;3.95;3.30;;;;;;;;;;4942561;28;20130;-61
2022/08/27 11:47:37;;;;;;;3.90;3.40;;;;;;;;;;4933949;28;20092;-62
2022/08/27 11:50:14;;;;;;;4.55;3.10;;;;;;;;;;4950352;28;20089;-61
2022/08/27 11:52:57;;;;;;;7.35;3.47;;;;;;;;;;4948752;28;20041;-60
2022/08/27 11:55:39;;;;;;;;;;;;;;;;;;4951071;28;20043;-62
2022/08/27 11:58:09;;;;;;;5.20;3.33;;;;;;;;;;4948963;28;20472;-63
2022/08/27 12:00:38;;;;;;;4.38;3.45;;;;;;;;;;4964085;28;20065;-62
2022/08/27 12:03:10;;;;;;;6.13;3.75;;;;;;;;;;4960139;28;20256;-60
2022/08/27 12:05:51;;;;;;;4.68;3.08;;;;;;;;;;4959255;28;20055;-60
2022/08/27 12:08:29;;;;;;;9.05;4.00;;;;;;;;;;4936748;28;20038;-61
2022/08/27 12:11:11;;;;;;;9.65;4.20;;;;;;;;;;4956741;28;20122;-62
2022/08/27 12:13:40;;;;;;;8.45;4.20;;;;;;;;;;4945363;28;20261;-61
2022/08/27 12:16:20;;;;;;;9.45;4.95;;;;;;;;;;4949634;28;20031;-65
2022/08/27 12:19:05;;;;;;;19.48;6.35;;;;;;;;;;4942579;28;20050;-61
2022/08/27 12:21:46;;;;;;;21.08;6.45;;;;;;;;;;4962214;28;20054;-62
2022/08/27 12:24:24;;;;;;;10.18;5.10;;;;;;;;;;4945910;28;20047;-63
2022/08/27 12:26:58;;;;;;;7.00;4.35;;;;;;;;;;4935455;28;20652;-63
2022/08/27 12:29:39;;;;;;;7.95;4.60;;;;;;;;;;4961803;28;20062;-63
2022/08/27 12:32:26;;;;;;;7.78;5.55;;;;;;;;;;4968776;28;20050;-63
2022/08/27 12:35:20;;;;;;;6.85;5.15;;;;;;;;;;4968814;28;20971;-66
2022/08/27 12:37:48;;;;;;;12.23;5.70;;;;;;;;;;4981406;28;20034;-64
2022/08/27 12:40:38;;;;;;;8.38;6.22;;;;;;;;;;4947704;28;20031;-68
2022/08/27 12:43:07;;;;;;;9.48;5.85;;;;;;;;;;4961556;28;20134;-67
2022/08/27 12:45:55;;;;;;;8.38;6.13;;;;;;;;;;4961465;28;20046;-65
2022/08/27 12:48:26;;;;;;;8.77;5.90;;;;;;;;;;4978309;28;20043;-67
2022/08/27 12:50:59;;;;;;;8.00;5.75;;;;;;;;;;4965138;28;20058;-68
2022/08/27 12:53:44;;;;;;;6.43;4.78;;;;;;;;;;4980576;28;20050;-68
2022/08/27 12:56:53;;;;;;;9.20;5.63;;;;;;;;;;4980888;28;20073;-68
2022/08/27 12:59:40;;;;;;;7.72;5.40;;;;;;;;;;4958268;28;20142;-70
2022/08/27 13:02:12;;;;;;;6.30;5.38;;;;;;;;;;4963934;28;20082;-69
2022/08/27 13:04:41;;;;;;;9.80;5.32;;;;;;;;;;4973503;28;20376;-69
2022/08/27 13:07:07;;;;;;;7.38;5.07;;;;;;;;;;4967723;28;20064;-68
2022/08/27 13:09:34;;;;;;;6.75;5.40;;;;;;;;;;4965114;28;20074;-69
2022/08/27 13:12:06;;;;;;;6.95;5.53;;;;;;;;;;4964315;28;20053;-67
2022/08/27 13:14:38;;;;;;;6.40;5.72;;;;;;;;;;4965419;28;20058;-63
2022/08/27 13:17:13;;;;;;;8.23;6.28;;;;;;;;;;4962796;28;20055;-64
2022/08/27 13:20:13;;;;;;;6.13;5.38;;;;;;;;;;4958617;28;20038;-64
2022/08/27 13:22:40;;;;;;;7.13;5.60;;;;;;;;;;4966689;28;20053;-69
2022/08/27 13:25:19;;;;;;;7.78;5.65;;;;;;;;;;4965584;28;20042;-62
2022/08/27 13:28:01;;;;;;;6.70;5.70;;;;;;;;;;4976759;28;20043;-67
2022/08/27 13:30:30;;;;;;;7.38;5.60;;;;;;;;;;4964192;28;20083;-61
2022/08/27 13:32:57;;;;;;;6.35;5.75;;;;;;;;;;4969381;28;20143;-65
2022/08/27 13:35:23;;;;;;;10.65;5.82;;;;;;;;;;4950024;28;20070;-66
2022/08/27 13:37:56;;;;;;;7.47;5.28;;;;;;;;;;4965499;28;20023;-66
2022/08/27 13:40:34;;;;;;;5.90;5.30;;;;;;;;;;4963605;28;20130;-61
2022/08/27 13:43:10;;;;;;;6.53;5.60;;;;;;;;;;4959252;28;20413;-60
2022/08/27 13:45:40;;;;;;;6.63;5.13;;;;;;;;;;4966311;28;20117;-60
2022/08/27 13:48:11;;;;;;;7.28;4.97;;;;;;;;;;4968889;28;20038;-60
2022/08/27 13:50:37;;;;;;;5.63;4.72;;;;;;;;;;4960521;28;20046;-60
2022/08/27 13:55:55;;;;;;;7.43;4.88;;;;;;;;;;4969487;28;20065;-59
2022/08/27 13:58:28;;;;;;;5.78;4.70;;;;;;;;;;4975290;28;20046;-60
2022/08/27 14:01:05;;;;;;;9.05;4.95;;;;;;;;;;4973927;28;20125;-60
2022/08/27 14:03:38;;;;;;;8.43;5.15;;;;;;;;;;4983995;28;20042;-59
2022/08/27 14:06:04;;;;;;;4.80;4.22;;;;;;;;;;4960943;28;20060;-68
2022/08/27 14:08:37;;;;;;;8.05;4.80;;;;;;;;;;4961624;28;20090;-67
2022/08/27 14:11:10;;;;;;;6.00;4.55;;;;;;;;;;4962413;28;20053;-68
2022/08/27 14:13:44;;;;;;;6.20;4.75;;;;;;;;;;4978425;28;20046;-68
2022/08/27 14:16:27;;;;;;;5.18;4.38;;;;;;;;;;4995038;28;20072;-67
2022/08/27 14:19:02;;;;;;;4.63;4.10;;;;;;;;;;5000771;28;20100;-68
2022/08/27 14:21:28;;;;;;;7.00;4.70;;;;;;;;;;4985441;28;20053;-67
2022/08/27 14:23:55;;;;;;;5.28;4.60;;;;;;;;;;4981133;28;21390;-67
2022/08/27 14:26:20;;;;;;;6.78;4.32;;;;;;;;;;4977929;28;20123;-66
2022/08/27 14:28:47;;;;;;;5.82;4.13;;;;;;;;;;5000199;28;20073;-66
2022/08/27 14:31:17;;;;;;;6.25;4.35;;;;;;;;;;4996830;28;20033;-66
2022/08/27 14:33:46;;;;;;;4.85;3.95;;;;;;;;;;4985664;28;20424;-66
2022/08/27 14:36:13;;;;;;;5.30;4.00;;;;;;;;;;5003441;28;20242;-66
2022/08/27 14:38:45;;;;;;;4.50;3.97;;;;;;;;;;4986313;28;20050;-68
2022/08/27 14:41:15;;;;;;;5.57;3.70;;;;;;;;;;4999450;28;20099;-65
2022/08/27 14:43:41;;;;;;;6.22;4.53;;;;;;;;;;4991811;28;20037;-67
2022/08/27 14:46:21;;;;;;;6.00;3.53;;;;;;;;;;5004318;28;20048;-64
2022/08/27 14:48:50;;;;;;;4.47;3.95;;;;;;;;;;5004730;28;20146;-65
2022/08/27 14:51:26;;;;;;;11.30;3.70;;;;;;;;;;5011327;28;20828;-66
2022/08/27 14:53:52;;;;;;;9.70;3.42;;;;;;;;;;4991858;28;20100;-67
2022/08/27 14:56:22;;;;;;;3.90;3.50;;;;;;;;;;5002367;28;20131;-68
2022/08/27 14:58:52;;;;;;;4.65;3.72;;;;;;;;;;4996805;28;20570;-67
2022/08/27 15:01:38;;;;;;;5.65;3.67;;;;;;;;;;4997890;28;20501;-66
2022/08/27 15:04:05;;;;;;;3.92;3.58;;;;;;;;;;5007017;28;20059;-65
2022/08/27 15:06:37;;;;;;;4.15;3.40;;;;;;;;;;4998646;28;20153;-68
2022/08/27 15:09:03;;;;;;;6.03;3.45;;;;;;;;;;4994950;28;20050;-66
2022/08/27 15:11:32;;;;;;;4.40;3.50;;;;;;;;;;4986393;28;20080;-66